createdAt,value
2019-03-04T00:00:51.751Z,992.71
2019-03-04T00:01:51.606Z,992.70
2019-03-04T00:02:51.963Z,992.80
2019-03-04T00:03:52.178Z,992.77
2019-03-04T00:04:52.389Z,992.89
2019-03-04T00:05:52.651Z,992.81
2019-03-04T00:06:52.824Z,992.79
2019-03-04T00:07:53.060Z,992.85
2019-03-04T00:08:53.144Z,992.77
2019-03-04T00:09:53.333Z,992.72
2019-03-04T00:10:53.527Z,992.76
2019-03-04T00:11:53.645Z,992.75
2019-03-04T00:12:53.835Z,992.84
2019-03-04T00:13:54.031Z,992.73
2019-03-04T00:14:54.251Z,992.71
2019-03-04T00:15:54.385Z,992.65
2019-03-04T00:16:54.570Z,992.61
2019-03-04T00:17:54.780Z,992.55
2019-03-04T00:18:54.980Z,992.52
2019-03-04T00:19:55.172Z,992.62
2019-03-04T00:20:55.321Z,992.56
2019-03-04T00:21:55.538Z,992.55
2019-03-04T00:22:55.752Z,992.50
2019-03-04T00:23:55.985Z,992.53
2019-03-04T00:24:56.192Z,992.58
2019-03-04T00:25:56.476Z,992.56
2019-03-04T00:26:56.514Z,992.49
2019-03-04T00:27:56.760Z,992.47
2019-03-04T00:28:56.993Z,992.32
2019-03-04T00:29:57.232Z,992.38
2019-03-04T00:30:57.420Z,992.39
2019-03-04T00:31:57.594Z,992.36
2019-03-04T00:32:57.798Z,992.22
2019-03-04T00:33:57.860Z,992.37
2019-03-04T00:34:58.088Z,992.38
2019-03-04T00:35:58.281Z,992.38
2019-03-04T00:36:58.413Z,992.38
2019-03-04T00:37:58.499Z,992.41
2019-03-04T00:38:58.662Z,992.42
2019-03-04T00:39:58.860Z,992.28
2019-03-04T00:40:59.086Z,992.38
2019-03-04T00:41:59.248Z,992.33
2019-03-04T00:42:59.458Z,992.26
2019-03-04T00:43:59.603Z,992.28
2019-03-04T00:44:59.726Z,992.35
2019-03-04T00:45:59.889Z,992.38
2019-03-04T00:46:59.987Z,992.34
2019-03-04T00:48:00.124Z,992.26
2019-03-04T00:49:00.285Z,992.22
2019-03-04T00:50:00.598Z,992.14
2019-03-04T00:51:00.945Z,992.15
2019-03-04T00:52:01.445Z,992.28
2019-03-04T00:53:02.013Z,992.15
2019-03-04T00:54:01.893Z,992.21
2019-03-04T00:55:02.110Z,992.15
2019-03-04T00:56:02.342Z,992.15
2019-03-04T00:57:02.446Z,992.20
2019-03-04T00:58:02.748Z,992.23
2019-03-04T00:59:02.954Z,992.18
2019-03-04T01:00:03.192Z,992.25
2019-03-04T01:01:03.615Z,992.26
2019-03-04T01:02:03.760Z,992.18
2019-03-04T01:03:03.874Z,992.08
2019-03-04T01:04:04.055Z,992.08
2019-03-04T01:05:04.231Z,992.09
2019-03-04T01:06:04.421Z,992.05
2019-03-04T01:07:04.645Z,992.03
2019-03-04T01:08:04.740Z,992.04
2019-03-04T01:09:04.919Z,992.10
2019-03-04T01:10:05.352Z,991.93
2019-03-04T01:11:05.512Z,991.99
2019-03-04T01:12:05.907Z,991.90
2019-03-04T01:13:06.067Z,991.83
2019-03-04T01:14:06.313Z,991.89
2019-03-04T01:15:06.589Z,992.02
2019-03-04T01:16:06.926Z,991.94
2019-03-04T01:17:07.121Z,991.94
2019-03-04T01:18:07.502Z,991.83
2019-03-04T01:19:07.834Z,991.91
2019-03-04T01:20:08.093Z,991.79
2019-03-04T01:21:08.121Z,991.84
2019-03-04T01:22:08.263Z,991.75
2019-03-04T01:23:08.463Z,991.81
2019-03-04T01:24:08.714Z,991.97
2019-03-04T01:25:08.910Z,991.48
2019-03-04T01:27:09.144Z,991.75
2019-03-04T01:28:09.363Z,991.76
2019-03-04T01:29:09.489Z,991.68
2019-03-04T01:30:09.695Z,991.67
2019-03-04T01:31:09.845Z,991.62
2019-03-04T01:32:10.130Z,991.69
2019-03-04T01:33:10.594Z,991.54
2019-03-04T01:34:10.768Z,991.62
2019-03-04T01:35:10.950Z,991.58
2019-03-04T01:36:11.106Z,991.60
2019-03-04T01:37:11.402Z,991.49
2019-03-04T01:38:11.606Z,991.43
2019-03-04T01:39:11.976Z,991.47
2019-03-04T01:40:12.288Z,991.39
2019-03-04T01:41:12.801Z,991.52
2019-03-04T01:42:12.926Z,991.40
2019-03-04T01:43:13.165Z,991.42
2019-03-04T01:44:13.308Z,991.47
2019-03-04T01:45:13.588Z,991.35
2019-03-04T01:46:13.821Z,991.41
2019-03-04T01:47:13.933Z,991.35
2019-03-04T01:48:14.015Z,991.26
2019-03-04T01:49:14.181Z,991.33
2019-03-04T01:50:14.388Z,991.21
2019-03-04T01:51:14.738Z,991.27
2019-03-04T01:52:14.941Z,991.22
2019-03-04T01:53:15.092Z,991.19
2019-03-04T01:54:15.350Z,991.08
2019-03-04T01:55:15.499Z,991.07
2019-03-04T01:56:15.739Z,991.25
2019-03-04T01:57:16.125Z,991.11
2019-03-04T01:58:16.485Z,991.12
2019-03-04T01:59:16.851Z,991.17
2019-03-04T02:00:17.598Z,991.08
2019-03-04T02:01:17.259Z,991.01
2019-03-04T02:02:17.478Z,991.11
2019-03-04T02:03:17.725Z,991.04
2019-03-04T02:04:17.879Z,991.17
2019-03-04T02:05:18.004Z,991.03
2019-03-04T02:06:18.124Z,990.95
2019-03-04T02:07:18.296Z,990.89
2019-03-04T02:08:18.432Z,990.90
2019-03-04T02:09:18.576Z,990.87
2019-03-04T02:10:18.789Z,990.90
2019-03-04T02:11:18.945Z,990.88
2019-03-04T02:12:19.050Z,990.98
2019-03-04T02:13:19.185Z,990.90
2019-03-04T02:14:19.241Z,990.97
2019-03-04T02:15:19.316Z,990.96
2019-03-04T02:16:19.361Z,990.93
2019-03-04T02:17:19.487Z,990.89
2019-03-04T02:18:19.638Z,991.02
2019-03-04T02:19:19.771Z,990.97
2019-03-04T02:20:19.945Z,990.88
2019-03-04T02:21:20.096Z,990.96
2019-03-04T02:22:20.297Z,990.94
2019-03-04T02:23:20.643Z,990.87
2019-03-04T02:24:20.967Z,990.89
2019-03-04T02:25:20.988Z,990.86
2019-03-04T02:26:21.403Z,990.88
2019-03-04T02:27:21.430Z,990.73
2019-03-04T02:28:21.652Z,990.69
2019-03-04T02:29:21.833Z,990.66
2019-03-04T02:30:22.040Z,990.56
2019-03-04T02:31:22.156Z,990.58
2019-03-04T02:32:22.262Z,990.63
2019-03-04T02:33:22.405Z,990.53
2019-03-04T02:34:22.530Z,990.57
2019-03-04T02:35:22.692Z,990.62
2019-03-04T02:36:22.872Z,990.57
2019-03-04T02:37:23.104Z,990.73
2019-03-04T02:38:23.226Z,990.61
2019-03-04T02:39:23.362Z,990.55
2019-03-04T02:40:23.479Z,990.45
2019-03-04T02:41:23.698Z,990.49
2019-03-04T02:42:23.789Z,990.44
2019-03-04T02:43:23.987Z,990.39
2019-03-04T02:44:24.116Z,990.46
2019-03-04T02:45:24.307Z,990.41
2019-03-04T02:46:24.478Z,990.35
2019-03-04T02:47:24.620Z,990.32
2019-03-04T02:48:24.822Z,990.30
2019-03-04T02:49:25.058Z,990.36
2019-03-04T02:50:25.323Z,990.30
2019-03-04T02:51:25.558Z,990.30
2019-03-04T02:52:25.775Z,990.28
2019-03-04T02:53:25.946Z,990.28
2019-03-04T02:54:26.088Z,990.33
2019-03-04T02:55:26.267Z,990.38
2019-03-04T02:56:26.483Z,990.28
2019-03-04T02:57:26.669Z,990.39
2019-03-04T02:58:26.759Z,990.40
2019-03-04T02:59:26.866Z,990.36
2019-03-04T03:00:27.111Z,990.38
2019-03-04T03:01:27.377Z,990.30
2019-03-04T03:02:27.547Z,990.28
2019-03-04T03:03:27.668Z,990.22
2019-03-04T03:04:27.827Z,990.12
2019-03-04T03:05:27.921Z,990.15
2019-03-04T03:06:28.066Z,990.09
2019-03-04T03:07:28.264Z,990.04
2019-03-04T03:08:28.379Z,990.00
2019-03-04T03:09:28.481Z,990.09
2019-03-04T03:10:28.703Z,990.07
2019-03-04T03:11:28.953Z,989.90
2019-03-04T03:12:29.121Z,989.94
2019-03-04T03:13:29.277Z,989.93
2019-03-04T03:14:29.392Z,989.91
2019-03-04T03:15:29.573Z,989.86
2019-03-04T03:16:29.756Z,989.73
2019-03-04T03:17:29.938Z,989.77
2019-03-04T03:18:30.116Z,989.79
2019-03-04T03:19:30.278Z,989.71
2019-03-04T03:20:30.543Z,989.69
2019-03-04T03:21:30.718Z,989.52
2019-03-04T03:22:31.071Z,989.49
2019-03-04T03:23:31.443Z,989.42
2019-03-04T03:24:31.826Z,989.39
2019-03-04T03:25:32.060Z,989.35
2019-03-04T03:26:32.257Z,989.26
2019-03-04T03:27:32.380Z,989.28
2019-03-04T03:28:32.523Z,989.18
2019-03-04T03:29:32.687Z,989.10
2019-03-04T03:30:32.933Z,989.00
2019-03-04T03:31:33.254Z,988.92
2019-03-04T03:32:33.240Z,988.82
2019-03-04T03:33:33.413Z,988.78
2019-03-04T03:34:33.593Z,988.71
2019-03-04T03:35:33.653Z,988.68
2019-03-04T03:36:33.800Z,988.68
2019-03-04T03:37:33.903Z,988.62
2019-03-04T03:38:34.047Z,988.73
2019-03-04T03:39:34.158Z,988.71
2019-03-04T03:40:34.293Z,988.62
2019-03-04T03:41:34.381Z,988.70
2019-03-04T03:42:34.520Z,988.63
2019-03-04T03:43:34.650Z,988.70
2019-03-04T03:44:34.780Z,988.71
2019-03-04T03:45:34.936Z,988.77
2019-03-04T03:46:35.094Z,988.85
2019-03-04T03:47:35.229Z,988.86
2019-03-04T03:48:35.366Z,988.76
2019-03-04T03:49:35.594Z,988.65
2019-03-04T03:50:35.733Z,988.72
2019-03-04T03:51:35.953Z,988.59
2019-03-04T03:52:36.095Z,988.64
2019-03-04T03:54:36.349Z,988.74
2019-03-04T03:55:36.574Z,988.71
2019-03-04T03:56:36.738Z,988.79
2019-03-04T03:57:36.969Z,988.74
2019-03-04T03:58:37.168Z,988.69
2019-03-04T03:59:37.326Z,988.66
2019-03-04T04:00:37.544Z,988.77
2019-03-04T04:01:37.724Z,988.64
2019-03-04T04:02:37.983Z,988.56
2019-03-04T04:03:38.195Z,988.61
2019-03-04T04:04:38.396Z,988.58
2019-03-04T04:05:38.585Z,988.54
2019-03-04T04:06:38.727Z,988.59
2019-03-04T04:07:38.917Z,988.49
2019-03-04T04:08:39.080Z,988.55
2019-03-04T04:09:39.285Z,988.52
2019-03-04T04:10:39.457Z,988.62
2019-03-04T04:11:39.647Z,988.57
2019-03-04T04:12:39.823Z,988.70
2019-03-04T04:13:40.122Z,988.67
2019-03-04T04:14:40.313Z,988.65
2019-03-04T04:15:40.441Z,988.70
2019-03-04T04:16:40.612Z,988.62
2019-03-04T04:17:40.852Z,988.68
2019-03-04T04:18:41.098Z,988.59
2019-03-04T04:19:41.277Z,988.54
2019-03-04T04:20:41.443Z,988.59
2019-03-04T04:21:41.629Z,988.53
2019-03-04T04:22:41.882Z,988.48
2019-03-04T04:23:41.994Z,988.52
2019-03-04T04:24:42.181Z,988.51
2019-03-04T04:25:42.360Z,988.49
2019-03-04T04:26:42.603Z,988.57
2019-03-04T04:27:42.775Z,988.43
2019-03-04T04:28:43.003Z,988.42
2019-03-04T04:29:43.260Z,988.41
2019-03-04T04:30:43.366Z,988.27
2019-03-04T04:31:43.587Z,988.20
2019-03-04T04:32:48.297Z,988.18
2019-03-04T04:33:44.074Z,988.16
2019-03-04T04:34:44.291Z,988.24
2019-03-04T04:35:44.481Z,988.15
2019-03-04T04:36:44.737Z,988.01
2019-03-04T04:37:44.857Z,988.14
2019-03-04T04:38:45.025Z,988.12
2019-03-04T04:40:45.128Z,988.05
2019-03-04T04:41:45.231Z,987.88
2019-03-04T04:42:45.383Z,987.77
2019-03-04T04:43:45.598Z,987.86
2019-03-04T04:44:45.920Z,987.74
2019-03-04T04:45:46.306Z,987.73
2019-03-04T04:46:46.609Z,987.62
2019-03-04T04:47:46.907Z,987.53
2019-03-04T04:48:47.326Z,987.52
2019-03-04T04:49:47.469Z,987.55
2019-03-04T04:50:47.681Z,987.66
2019-03-04T04:51:47.905Z,987.64
2019-03-04T04:52:48.009Z,987.68
2019-03-04T04:53:48.063Z,987.72
2019-03-04T04:54:48.185Z,987.66
2019-03-04T04:55:48.364Z,987.75
2019-03-04T04:56:48.501Z,987.69
2019-03-04T04:57:48.589Z,987.67
2019-03-04T04:58:48.663Z,987.61
2019-03-04T04:59:48.740Z,987.64
2019-03-04T05:00:48.887Z,987.66
2019-03-04T05:01:49.001Z,987.52
2019-03-04T05:02:49.125Z,987.57
2019-03-04T05:03:49.246Z,987.47
2019-03-04T05:04:49.300Z,987.57
2019-03-04T05:05:49.396Z,987.54
2019-03-04T05:06:49.522Z,987.50
2019-03-04T05:07:49.628Z,987.45
2019-03-04T05:08:49.712Z,987.43
2019-03-04T05:09:49.898Z,987.37
2019-03-04T05:10:50.061Z,987.41
2019-03-04T05:11:50.174Z,987.31
2019-03-04T05:12:50.329Z,987.28
2019-03-04T05:13:50.459Z,987.39
2019-03-04T05:14:50.558Z,987.38
2019-03-04T05:15:50.825Z,987.35
2019-03-04T05:16:50.772Z,987.32
2019-03-04T05:17:50.953Z,987.27
2019-03-04T05:18:51.148Z,987.22
2019-03-04T05:19:51.303Z,987.14
2019-03-04T05:20:51.477Z,986.81
2019-03-04T05:21:51.542Z,986.66
2019-03-04T05:22:51.637Z,986.58
2019-03-04T05:23:51.770Z,986.67
2019-03-04T05:24:51.945Z,986.65
2019-03-04T05:25:52.070Z,986.67
2019-03-04T05:26:52.265Z,986.91
2019-03-04T05:27:52.418Z,986.89
2019-03-04T05:28:52.663Z,987.06
2019-03-04T05:29:53.022Z,986.88
2019-03-04T05:31:53.228Z,986.74
2019-03-04T05:32:53.404Z,986.48
2019-03-04T05:33:53.599Z,986.38
2019-03-04T05:34:53.741Z,986.33
2019-03-04T05:35:53.897Z,986.14
2019-03-04T05:36:54.033Z,986.06
2019-03-04T05:37:54.142Z,985.87
2019-03-04T05:38:54.288Z,985.77
2019-03-04T05:39:54.460Z,985.78
2019-03-04T05:40:54.641Z,985.62
2019-03-04T05:41:54.822Z,985.72
2019-03-04T05:42:54.975Z,985.72
2019-03-04T05:44:55.156Z,985.80
2019-03-04T05:45:55.371Z,985.94
2019-03-04T05:46:55.416Z,986.01
2019-03-04T05:47:55.586Z,986.04
2019-03-04T05:48:55.774Z,985.94
2019-03-04T05:49:55.892Z,985.82
2019-03-04T05:50:56.020Z,985.73
2019-03-04T05:51:56.217Z,985.75
2019-03-04T05:52:56.429Z,985.75
2019-03-04T05:53:56.489Z,985.68
2019-03-04T05:54:56.621Z,985.72
2019-03-04T05:55:56.768Z,985.75
2019-03-04T05:56:56.965Z,985.83
2019-03-04T05:57:57.158Z,985.83
2019-03-04T05:58:57.286Z,985.85
2019-03-04T05:59:57.345Z,985.96
2019-03-04T06:00:57.495Z,986.10
2019-03-04T06:01:57.896Z,986.07
2019-03-04T06:02:58.283Z,986.06
2019-03-04T06:03:58.419Z,986.01
2019-03-04T06:04:58.699Z,986.04
2019-03-04T06:05:58.957Z,986.04
2019-03-04T06:06:59.161Z,986.11
2019-03-04T06:07:59.495Z,986.14
2019-03-04T06:09:00.020Z,986.04
2019-03-04T06:10:00.349Z,986.00
2019-03-04T06:11:00.459Z,985.97
2019-03-04T06:12:00.758Z,986.03
2019-03-04T06:13:01.077Z,985.90
2019-03-04T06:14:01.532Z,986.01
2019-03-04T06:15:01.520Z,985.95
2019-03-04T06:16:01.448Z,986.04
2019-03-04T06:17:01.954Z,985.95
2019-03-04T06:18:02.311Z,986.13
2019-03-04T06:19:02.484Z,986.01
2019-03-04T06:20:02.954Z,986.08
2019-03-04T06:21:02.906Z,986.10
2019-03-04T06:22:03.190Z,986.11
2019-03-04T06:23:03.328Z,986.12
2019-03-04T06:24:03.601Z,986.22
2019-03-04T06:25:03.752Z,986.23
2019-03-04T06:26:04.083Z,986.29
2019-03-04T06:27:04.176Z,986.29
2019-03-04T06:28:04.258Z,986.30
2019-03-04T06:29:04.502Z,986.37
2019-03-04T06:30:04.656Z,986.31
2019-03-04T06:31:04.744Z,986.38
2019-03-04T06:32:04.976Z,986.47
2019-03-04T06:33:05.128Z,986.51
2019-03-04T06:34:05.220Z,986.60
2019-03-04T06:35:05.467Z,986.65
2019-03-04T06:36:05.787Z,986.51
2019-03-04T06:37:06.070Z,986.59
2019-03-04T06:38:06.242Z,986.47
2019-03-04T06:39:06.330Z,986.34
2019-03-04T06:40:06.565Z,986.35
2019-03-04T06:41:06.815Z,986.46
2019-03-04T06:43:07.011Z,986.58
2019-03-04T06:44:07.215Z,986.68
2019-03-04T06:45:07.368Z,986.75
2019-03-04T06:46:07.617Z,986.81
2019-03-04T06:47:07.843Z,986.55
2019-03-04T06:48:08.041Z,986.47
2019-03-04T06:49:08.306Z,986.30
2019-03-04T06:50:08.575Z,986.10
2019-03-04T06:51:08.661Z,986.06
2019-03-04T06:52:08.769Z,985.71
2019-03-04T06:53:09.324Z,985.77
2019-03-04T06:54:08.896Z,985.85
2019-03-04T06:55:09.108Z,985.88
2019-03-04T06:56:09.434Z,985.92
2019-03-04T06:57:09.500Z,986.18
2019-03-04T06:58:09.661Z,986.09
2019-03-04T06:59:09.730Z,985.94
2019-03-04T07:00:09.913Z,985.80
2019-03-04T07:01:10.602Z,985.71
2019-03-04T07:02:10.546Z,985.58
2019-03-04T07:03:10.630Z,985.62
2019-03-04T07:04:10.566Z,985.66
2019-03-04T07:05:10.712Z,985.52
2019-03-04T07:06:10.669Z,985.45
2019-03-04T07:07:10.908Z,985.23
2019-03-04T07:08:11.050Z,984.77
2019-03-04T07:10:11.605Z,984.55
2019-03-04T07:11:11.691Z,984.40
2019-03-04T07:12:11.836Z,984.54
2019-03-04T07:13:12.076Z,984.68
2019-03-04T07:14:12.240Z,984.82
2019-03-04T07:15:12.421Z,985.06
2019-03-04T07:16:12.637Z,985.26
2019-03-04T07:17:12.794Z,985.40
2019-03-04T07:18:12.939Z,985.59
2019-03-04T07:19:13.138Z,985.37
2019-03-04T07:20:13.391Z,985.32
2019-03-04T07:21:13.559Z,984.96
2019-03-04T07:22:13.694Z,984.53
2019-03-04T07:23:13.775Z,983.96
2019-03-04T07:24:13.963Z,983.84
2019-03-04T07:25:14.164Z,984.45
2019-03-04T07:26:14.317Z,984.74
2019-03-04T07:27:14.440Z,984.88
2019-03-04T07:28:14.750Z,985.27
2019-03-04T07:29:15.241Z,985.05
2019-03-04T07:30:15.464Z,984.79
2019-03-04T07:31:15.712Z,984.79
2019-03-04T07:32:15.874Z,984.77
2019-03-04T07:33:16.334Z,984.95
2019-03-04T07:35:16.736Z,984.93
2019-03-04T07:36:17.039Z,985.11
2019-03-04T07:37:17.246Z,985.08
2019-03-04T07:38:17.550Z,985.08
2019-03-04T07:39:17.702Z,985.00
2019-03-04T07:40:18.120Z,984.87
2019-03-04T07:41:18.325Z,984.89
2019-03-04T07:42:18.444Z,984.75
2019-03-04T07:43:18.764Z,984.85
2019-03-04T07:44:18.872Z,985.03
2019-03-04T07:45:18.957Z,984.80
2019-03-04T07:46:19.056Z,984.69
2019-03-04T07:47:19.152Z,984.72
2019-03-04T07:48:19.253Z,984.61
2019-03-04T07:49:19.405Z,984.84
2019-03-04T07:50:19.458Z,984.82
2019-03-04T07:51:19.520Z,984.94
2019-03-04T07:52:19.667Z,984.74
2019-03-04T07:53:19.792Z,984.75
2019-03-04T07:54:19.894Z,984.53
2019-03-04T07:55:19.927Z,984.37
2019-03-04T07:56:19.990Z,984.28
2019-03-04T07:57:20.065Z,984.68
2019-03-04T07:58:20.160Z,984.51
2019-03-04T07:59:20.244Z,984.72
2019-03-04T08:00:20.400Z,984.77
2019-03-04T08:01:20.596Z,984.69
2019-03-04T08:02:20.738Z,984.72
2019-03-04T08:03:20.891Z,984.75
2019-03-04T08:04:21.069Z,984.63
2019-03-04T08:05:21.259Z,984.20
2019-03-04T08:06:21.358Z,984.32
2019-03-04T08:07:21.525Z,984.36
2019-03-04T08:08:21.930Z,984.39
2019-03-04T08:09:22.097Z,984.72
2019-03-04T08:10:22.254Z,984.71
2019-03-04T08:11:22.571Z,984.84
2019-03-04T08:12:22.915Z,984.74
2019-03-04T08:13:23.498Z,984.71
2019-03-04T08:14:23.946Z,984.80
2019-03-04T08:15:24.054Z,984.79
2019-03-04T08:16:24.456Z,984.62
2019-03-04T08:17:24.615Z,984.65
2019-03-04T08:18:24.777Z,984.88
2019-03-04T08:19:24.981Z,984.87
2019-03-04T08:20:25.185Z,984.85
2019-03-04T08:21:25.313Z,985.17
2019-03-04T08:22:25.560Z,984.83
2019-03-04T08:23:25.651Z,984.65
2019-03-04T08:24:25.720Z,984.74
2019-03-04T08:25:25.836Z,984.49
2019-03-04T08:26:25.982Z,984.47
2019-03-04T08:27:26.115Z,984.50
2019-03-04T08:28:26.516Z,984.62
2019-03-04T08:29:26.645Z,984.79
2019-03-04T08:30:26.785Z,984.83
2019-03-04T08:31:26.915Z,984.85
2019-03-04T08:32:27.046Z,984.95
2019-03-04T08:33:27.124Z,984.81
2019-03-04T08:34:30.968Z,984.93
2019-03-04T08:35:27.476Z,984.92
2019-03-04T08:36:27.648Z,984.92
2019-03-04T08:37:27.831Z,985.02
2019-03-04T08:38:27.920Z,985.12
2019-03-04T08:39:28.117Z,985.17
2019-03-04T08:40:28.305Z,985.17
2019-03-04T08:41:28.453Z,984.97
2019-03-04T08:42:28.733Z,984.96
2019-03-04T08:43:28.932Z,984.94
2019-03-04T08:44:31.086Z,985.17
2019-03-04T08:45:29.293Z,984.77
2019-03-04T08:46:29.507Z,985.20
2019-03-04T08:47:29.613Z,985.20
2019-03-04T08:48:29.782Z,985.39
2019-03-04T08:49:29.947Z,985.54
2019-03-04T08:50:30.077Z,985.52
2019-03-04T08:51:30.238Z,985.82
2019-03-04T08:52:30.497Z,985.60
2019-03-04T08:53:31.050Z,985.48
2019-03-04T08:54:30.950Z,985.70
2019-03-04T08:55:31.164Z,985.78
2019-03-04T08:56:31.363Z,985.84
2019-03-04T08:57:31.736Z,985.94
2019-03-04T08:58:34.230Z,985.94
2019-03-04T08:59:32.125Z,985.88
2019-03-04T09:00:32.231Z,985.80
2019-03-04T09:01:32.513Z,985.76
2019-03-04T09:02:32.680Z,985.71
2019-03-04T09:03:32.873Z,985.71
2019-03-04T09:04:32.938Z,985.76
2019-03-04T09:05:33.098Z,985.85
2019-03-04T09:06:33.174Z,985.88
2019-03-04T09:07:33.282Z,985.98
2019-03-04T09:08:33.357Z,986.02
2019-03-04T09:09:33.382Z,986.02
2019-03-04T09:10:33.434Z,986.08
2019-03-04T09:11:33.494Z,986.11
2019-03-04T09:12:35.820Z,986.12
2019-03-04T09:13:33.735Z,986.16
2019-03-04T09:14:33.860Z,986.23
2019-03-04T09:15:33.977Z,986.26
2019-03-04T09:16:34.008Z,986.29
2019-03-04T09:17:34.048Z,986.29
2019-03-04T09:18:34.181Z,986.30
2019-03-04T09:19:34.286Z,986.30
2019-03-04T09:20:34.395Z,986.34
2019-03-04T09:21:34.425Z,986.37
2019-03-04T09:22:34.494Z,986.42
2019-03-04T09:23:34.634Z,986.46
2019-03-04T09:24:34.751Z,986.47
2019-03-04T09:25:34.842Z,986.45
2019-03-04T09:26:35.026Z,986.45
2019-03-04T09:27:35.204Z,986.48
2019-03-04T09:29:35.333Z,986.50
2019-03-04T09:30:35.494Z,986.51
2019-03-04T09:31:35.695Z,986.55
2019-03-04T09:32:35.904Z,986.54
2019-03-04T09:33:36.101Z,986.54
2019-03-04T09:34:36.333Z,986.57
2019-03-04T09:35:36.460Z,986.58
2019-03-04T09:36:36.535Z,986.56
2019-03-04T09:37:36.707Z,986.58
2019-03-04T09:38:36.915Z,986.59
2019-03-04T09:39:37.111Z,986.60
2019-03-04T09:40:37.317Z,986.67
2019-03-04T09:41:37.499Z,986.63
2019-03-04T09:42:37.701Z,986.65
2019-03-04T09:43:37.902Z,986.65
2019-03-04T09:44:38.092Z,986.65
2019-03-04T09:45:39.421Z,986.65
2019-03-04T09:46:38.431Z,986.61
2019-03-04T09:47:38.648Z,986.68
2019-03-04T09:48:38.833Z,986.82
2019-03-04T09:49:38.992Z,986.81
2019-03-04T09:50:39.192Z,986.78
2019-03-04T09:51:39.435Z,986.80
2019-03-04T09:52:39.521Z,986.78
2019-03-04T09:53:39.968Z,986.71
2019-03-04T09:54:39.940Z,986.67
2019-03-04T09:55:40.094Z,986.66
2019-03-04T09:56:40.214Z,986.70
2019-03-04T09:57:40.361Z,986.67
2019-03-04T09:58:40.565Z,986.79
2019-03-04T09:59:40.766Z,986.77
2019-03-04T10:00:41.009Z,986.73
2019-03-04T10:01:41.099Z,986.71
2019-03-04T10:02:41.610Z,986.67
2019-03-04T10:03:41.522Z,986.82
2019-03-04T10:04:41.859Z,986.74
2019-03-04T10:05:42.375Z,986.60
2019-03-04T10:06:42.795Z,986.55
2019-03-04T10:07:43.187Z,986.56
2019-03-04T10:08:43.544Z,986.24
2019-03-04T10:09:43.803Z,986.26
2019-03-04T10:10:43.858Z,986.26
2019-03-04T10:11:43.996Z,986.27
2019-03-04T10:12:44.064Z,986.27
2019-03-04T10:13:44.193Z,986.28
2019-03-04T10:14:44.218Z,986.23
2019-03-04T10:15:44.740Z,986.22
2019-03-04T10:16:45.221Z,986.25
2019-03-04T10:17:45.273Z,986.21
2019-03-04T10:18:45.368Z,986.23
2019-03-04T10:19:45.598Z,986.23
2019-03-04T10:20:45.829Z,986.22
2019-03-04T10:21:45.931Z,986.27
2019-03-04T10:22:45.974Z,986.27
2019-03-04T10:23:46.579Z,986.19
2019-03-04T10:24:46.790Z,986.19
2019-03-04T10:25:46.972Z,986.25
2019-03-04T10:26:47.127Z,986.16
2019-03-04T10:27:47.937Z,986.12
2019-03-04T10:28:48.313Z,986.12
2019-03-04T10:29:47.737Z,986.12
2019-03-04T10:30:48.340Z,986.10
2019-03-04T10:31:47.868Z,986.02
2019-03-04T10:32:48.439Z,986.04
2019-03-04T10:33:48.399Z,986.11
2019-03-04T10:34:48.415Z,986.04
2019-03-04T10:35:48.802Z,986.04
2019-03-04T10:36:48.933Z,986.15
2019-03-04T10:37:49.377Z,986.27
2019-03-04T10:38:49.752Z,986.25
2019-03-04T10:39:50.324Z,986.30
2019-03-04T10:40:50.690Z,986.29
2019-03-04T10:41:50.749Z,986.32
2019-03-04T10:42:51.037Z,986.28
2019-03-04T10:43:51.093Z,986.27
2019-03-04T10:44:51.249Z,986.22
2019-03-04T10:45:51.346Z,986.24
2019-03-04T10:46:51.687Z,986.26
2019-03-04T10:47:51.832Z,986.25
2019-03-04T10:48:52.041Z,986.22
2019-03-04T10:49:52.382Z,986.28
2019-03-04T10:50:52.682Z,986.17
2019-03-04T10:51:52.754Z,986.31
2019-03-04T10:52:53.057Z,986.23
2019-03-04T10:53:53.318Z,986.19
2019-03-04T10:54:53.669Z,986.12
2019-03-04T10:55:54.063Z,986.13
2019-03-04T10:56:54.497Z,986.38
2019-03-04T10:57:54.333Z,986.31
2019-03-04T10:58:54.695Z,986.32
2019-03-04T10:59:54.937Z,986.33
2019-03-04T11:00:55.201Z,986.65
2019-03-04T11:01:55.481Z,986.55
2019-03-04T11:02:56.082Z,986.47
2019-03-04T11:03:55.972Z,986.20
2019-03-04T11:04:56.181Z,986.24
2019-03-04T11:05:56.288Z,986.24
2019-03-04T11:06:58.438Z,986.22
2019-03-04T11:07:56.882Z,986.24
2019-03-04T11:08:57.047Z,986.30
2019-03-04T11:09:57.223Z,986.31
2019-03-04T11:10:57.357Z,986.26
2019-03-04T11:11:57.461Z,986.21
2019-03-04T11:12:57.697Z,986.25
2019-03-04T11:13:58.041Z,986.19
2019-03-04T11:14:58.468Z,986.24
2019-03-04T11:15:58.568Z,986.33
2019-03-04T11:16:58.705Z,986.36
2019-03-04T11:17:58.853Z,986.38
2019-03-04T11:18:59.044Z,986.36
2019-03-04T11:19:59.226Z,986.38
2019-03-04T11:20:59.547Z,986.37
2019-03-04T11:21:59.872Z,986.31
2019-03-04T11:22:59.721Z,986.33
2019-03-04T11:24:00.010Z,986.32
2019-03-04T11:25:00.317Z,986.23
2019-03-04T11:26:00.278Z,986.22
2019-03-04T11:27:00.488Z,986.22
2019-03-04T11:28:00.692Z,986.20
2019-03-04T11:29:01.179Z,986.19
2019-03-04T11:30:01.636Z,986.16
2019-03-04T11:31:01.713Z,986.10
2019-03-04T11:32:02.881Z,986.07
2019-03-04T11:33:09.185Z,986.05
2019-03-04T11:34:02.614Z,986.04
2019-03-04T11:35:02.851Z,985.86
2019-03-04T11:36:04.954Z,985.83
2019-03-04T11:37:04.653Z,985.83
2019-03-04T11:38:05.877Z,985.83
2019-03-04T11:39:03.350Z,985.82
2019-03-04T11:40:03.460Z,985.77
2019-03-04T11:41:03.567Z,985.78
2019-03-04T11:42:03.722Z,985.81
2019-03-04T11:43:03.951Z,985.82
2019-03-04T11:44:04.089Z,985.79
2019-03-04T11:45:04.158Z,985.78
2019-03-04T11:46:04.671Z,985.77
2019-03-04T11:47:04.742Z,985.76
2019-03-04T11:48:04.995Z,985.72
2019-03-04T11:49:05.154Z,985.70
2019-03-04T11:50:05.403Z,985.71
2019-03-04T11:51:07.839Z,985.70
2019-03-04T11:52:05.599Z,985.69
2019-03-04T11:53:05.848Z,985.71
2019-03-04T11:54:06.045Z,985.68
2019-03-04T11:55:06.336Z,985.65
2019-03-04T11:56:06.402Z,985.62
2019-03-04T11:57:06.675Z,985.76
2019-03-04T11:58:06.924Z,985.73
2019-03-04T11:59:07.023Z,985.69
2019-03-04T12:00:07.151Z,985.67
2019-03-04T12:01:07.440Z,985.68
2019-03-04T12:02:09.335Z,985.72
2019-03-04T12:03:07.855Z,985.72
2019-03-04T12:04:08.047Z,985.65
2019-03-04T12:05:08.225Z,985.64
2019-03-04T12:06:09.073Z,985.62
2019-03-04T12:07:08.737Z,985.57
2019-03-04T12:08:08.977Z,985.53
2019-03-04T12:09:09.316Z,985.49
2019-03-04T12:10:09.482Z,985.50
2019-03-04T12:11:11.935Z,985.47
2019-03-04T12:12:09.964Z,985.46
2019-03-04T12:13:10.241Z,985.42
2019-03-04T12:14:12.703Z,985.48
2019-03-04T12:15:12.402Z,985.30
2019-03-04T12:16:12.753Z,985.31
2019-03-04T12:17:11.291Z,985.33
2019-03-04T12:18:12.876Z,985.40
2019-03-04T12:19:13.730Z,985.17
2019-03-04T12:20:13.278Z,985.22
2019-03-04T12:21:13.371Z,985.24
2019-03-04T12:22:14.941Z,985.29
2019-03-04T12:23:12.460Z,985.35
2019-03-04T12:24:12.713Z,985.46
2019-03-04T12:25:12.913Z,985.47
2019-03-04T12:26:13.113Z,985.46
2019-03-04T12:27:13.245Z,985.41
2019-03-04T12:28:13.404Z,985.41
2019-03-04T12:29:13.480Z,985.41
2019-03-04T12:30:13.616Z,985.45
2019-03-04T12:31:14.036Z,985.66
2019-03-04T12:32:14.271Z,985.65
2019-03-04T12:33:14.328Z,985.61
2019-03-04T12:34:24.287Z,985.58
2019-03-04T12:35:14.650Z,985.57
2019-03-04T12:36:14.790Z,985.60
2019-03-04T12:37:15.009Z,985.57
2019-03-04T12:38:15.216Z,985.47
2019-03-04T12:39:15.372Z,985.55
2019-03-04T12:40:15.730Z,985.43